createdAt,value
2023-03-17T00:01:13.895Z,6.80
2023-03-17T00:03:42.548Z,6.32
2023-03-17T00:06:16.155Z,8.93
2023-03-17T00:08:43.937Z,7.93
2023-03-17T00:11:13.626Z,8.52
2023-03-17T00:13:41.732Z,7.22
2023-03-17T00:16:14.223Z,7.10
2023-03-17T00:18:41.915Z,7.85
2023-03-17T00:21:16.198Z,8.48
2023-03-17T00:23:49.537Z,7.90
2023-03-17T00:26:17.100Z,6.60
2023-03-17T00:28:44.722Z,6.00
2023-03-17T00:31:14.502Z,5.97
2023-03-17T00:33:42.532Z,10.48
2023-03-17T00:36:14.153Z,6.10
2023-03-17T00:38:41.819Z,8.85
2023-03-17T00:41:10.557Z,5.45
2023-03-17T00:43:38.957Z,7.43
2023-03-17T00:46:25.793Z,7.72
2023-03-17T00:48:54.168Z,6.22
2023-03-17T00:51:21.957Z,7.55
2023-03-17T00:53:49.540Z,7.32
2023-03-17T00:56:19.053Z,7.82
2023-03-17T00:58:47.489Z,8.77
2023-03-17T01:01:18.366Z,8.55
2023-03-17T01:03:47.975Z,10.73
2023-03-17T01:06:15.887Z,8.25
2023-03-17T01:08:44.733Z,7.28
2023-03-17T01:11:18.680Z,7.90
2023-03-17T01:13:48.252Z,6.80
2023-03-17T01:16:15.935Z,5.43
2023-03-17T01:18:43.951Z,7.57
2023-03-17T01:21:12.574Z,7.10
2023-03-17T01:23:40.135Z,8.68
2023-03-17T01:26:07.815Z,8.98
2023-03-17T01:28:35.768Z,7.53
2023-03-17T01:31:03.315Z,6.93
2023-03-17T01:33:30.867Z,7.70
2023-03-17T01:35:58.588Z,7.10
2023-03-17T01:38:26.163Z,11.15
2023-03-17T01:40:54.747Z,7.47
2023-03-17T01:43:28.060Z,9.50
2023-03-17T01:46:34.804Z,7.22
2023-03-17T01:49:04.422Z,9.30
2023-03-17T01:51:50.341Z,6.32
2023-03-17T01:54:20.611Z,7.03
2023-03-17T01:56:50.370Z,7.25
2023-03-17T01:59:20.164Z,7.22
2023-03-17T02:01:49.375Z,5.32
2023-03-17T02:04:17.402Z,7.72
2023-03-17T02:06:57.406Z,7.85
2023-03-17T02:09:26.301Z,7.60
2023-03-17T02:11:54.381Z,8.02
2023-03-17T02:14:22.023Z,8.05
2023-03-17T02:16:49.795Z,10.25
2023-03-17T02:19:17.551Z,7.50
2023-03-17T02:21:47.545Z,8.35
2023-03-17T02:24:41.360Z,9.23
2023-03-17T02:27:18.497Z,7.85
2023-03-17T02:29:46.838Z,6.40
2023-03-17T02:32:15.888Z,5.20
2023-03-17T02:34:43.457Z,9.88
2023-03-17T02:37:11.436Z,5.55
2023-03-17T02:39:39.023Z,12.20
2023-03-17T02:42:07.350Z,6.88
2023-03-17T02:44:35.734Z,6.28
2023-03-17T02:47:03.530Z,6.55
2023-03-17T02:49:32.508Z,6.00
2023-03-17T02:52:00.222Z,8.52
2023-03-17T02:54:27.764Z,9.75
2023-03-17T02:56:55.509Z,8.82
2023-03-17T02:59:23.306Z,6.13
2023-03-17T03:01:51.242Z,7.22
2023-03-17T03:04:19.159Z,6.53
2023-03-17T03:06:47.630Z,6.50
2023-03-17T03:09:17.667Z,7.72
2023-03-17T03:11:45.568Z,6.78
2023-03-17T03:14:13.182Z,6.07
2023-03-17T03:16:41.000Z,8.00
2023-03-17T03:19:08.904Z,7.53
2023-03-17T03:21:37.068Z,7.35
2023-03-17T03:24:05.270Z,6.82
2023-03-17T03:26:32.896Z,6.28
2023-03-17T03:29:00.456Z,7.05
2023-03-17T03:31:28.488Z,5.45
2023-03-17T03:33:56.249Z,9.70
2023-03-17T03:36:25.211Z,7.60
2023-03-17T03:38:52.765Z,8.80
2023-03-17T03:41:20.333Z,7.10
2023-03-17T03:43:47.939Z,6.10
2023-03-17T03:46:15.873Z,7.13
2023-03-17T03:48:43.454Z,7.53
2023-03-17T03:51:12.021Z,6.65
2023-03-17T03:53:39.579Z,7.15
2023-03-17T03:56:07.309Z,7.10
2023-03-17T03:58:34.847Z,7.28
2023-03-17T04:01:09.487Z,5.88
2023-03-17T04:03:37.589Z,6.65
2023-03-17T04:06:05.750Z,6.15
2023-03-17T04:08:33.522Z,6.13
2023-03-17T04:11:01.215Z,6.32
2023-03-17T04:13:28.765Z,5.82
2023-03-17T04:15:56.411Z,6.53
2023-03-17T04:18:24.050Z,7.00
2023-03-17T04:20:51.609Z,7.20
2023-03-17T04:23:19.227Z,5.35
2023-03-17T04:25:46.788Z,5.55
2023-03-17T04:28:14.355Z,5.20
2023-03-17T04:30:41.923Z,8.07
2023-03-17T04:33:09.507Z,6.32
2023-03-17T04:35:37.200Z,6.07
2023-03-17T04:38:04.797Z,4.90
2023-03-17T04:40:32.618Z,7.45
2023-03-17T04:43:02.443Z,7.45
2023-03-17T04:45:32.248Z,6.38
2023-03-17T04:47:59.878Z,6.13
2023-03-17T04:50:27.523Z,6.15
2023-03-17T04:52:55.074Z,8.00
2023-03-17T04:55:22.614Z,8.32
2023-03-17T04:57:50.515Z,6.60
2023-03-17T05:00:18.502Z,8.45
2023-03-17T05:02:46.051Z,6.13
2023-03-17T05:05:13.758Z,8.75
2023-03-17T05:07:41.804Z,6.30
2023-03-17T05:10:09.809Z,5.38
2023-03-17T05:12:38.407Z,11.27
2023-03-17T05:15:06.446Z,8.63
2023-03-17T05:17:34.176Z,6.72
2023-03-17T05:20:01.697Z,7.30
2023-03-17T05:22:29.238Z,17.02
2023-03-17T05:24:56.775Z,15.13
2023-03-17T05:27:24.370Z,5.15
2023-03-17T05:29:51.914Z,5.50
2023-03-17T05:32:19.763Z,5.63
2023-03-17T05:34:47.776Z,5.30
2023-03-17T05:37:15.632Z,7.75
2023-03-17T05:39:43.669Z,6.30
2023-03-17T05:42:11.359Z,4.82
2023-03-17T05:44:39.548Z,6.25
2023-03-17T05:47:08.387Z,5.20
2023-03-17T05:49:36.047Z,4.75
2023-03-17T05:52:03.590Z,10.20
2023-03-17T05:54:31.193Z,4.88
2023-03-17T05:56:58.712Z,6.05
2023-03-17T05:59:26.335Z,5.10
2023-03-17T06:01:53.869Z,9.93
2023-03-17T06:04:21.773Z,5.57
2023-03-17T06:06:49.310Z,5.95
2023-03-17T06:09:16.902Z,7.80
2023-03-17T06:11:44.596Z,6.07
2023-03-17T06:14:13.231Z,5.03
2023-03-17T06:16:40.820Z,7.68
2023-03-17T06:19:08.356Z,8.48
2023-03-17T06:21:35.966Z,6.53
2023-03-17T06:24:03.647Z,6.47
2023-03-17T06:26:31.350Z,6.65
2023-03-17T06:28:58.895Z,4.93
2023-03-17T06:31:26.587Z,4.35
2023-03-17T06:33:54.191Z,5.95
2023-03-17T06:36:22.235Z,7.75
2023-03-17T06:38:49.853Z,4.50
2023-03-17T06:41:17.395Z,6.88
2023-03-17T06:43:45.220Z,4.85
2023-03-17T06:46:12.956Z,6.93
2023-03-17T06:48:40.558Z,21.83
2023-03-17T06:51:08.705Z,6.43
2023-03-17T06:53:36.378Z,16.23
2023-03-17T06:56:05.075Z,12.98
2023-03-17T06:58:33.098Z,6.30
2023-03-17T07:01:00.715Z,32.08
2023-03-17T07:03:28.665Z,6.75
2023-03-17T07:05:56.354Z,14.05
2023-03-17T07:08:23.937Z,9.35
2023-03-17T07:10:52.864Z,7.25
2023-03-17T07:13:20.898Z,8.45
2023-03-17T07:15:49.194Z,9.38
2023-03-17T07:18:16.986Z,7.60
2023-03-17T07:20:44.614Z,5.47
2023-03-17T07:23:15.347Z,10.18
2023-03-17T07:25:43.689Z,10.50
2023-03-17T07:28:11.320Z,7.97
2023-03-17T07:30:40.222Z,6.13
2023-03-17T07:33:07.898Z,8.68
2023-03-17T07:35:35.729Z,10.25
2023-03-17T07:38:03.335Z,9.27
2023-03-17T07:40:33.092Z,7.65
2023-03-17T07:43:02.518Z,10.43
2023-03-17T07:45:30.613Z,6.57
2023-03-17T07:47:58.436Z,7.82
2023-03-17T07:50:26.592Z,10.00
2023-03-17T07:52:54.176Z,7.70
2023-03-17T07:55:21.786Z,9.18
2023-03-17T07:57:49.387Z,10.20
2023-03-17T08:00:17.362Z,6.05
2023-03-17T08:02:46.844Z,8.20
2023-03-17T08:05:16.952Z,7.65
2023-03-17T08:07:44.570Z,8.00
2023-03-17T08:10:15.477Z,7.88
2023-03-17T08:12:43.279Z,4.50
2023-03-17T08:15:11.585Z,7.43
2023-03-17T08:17:40.525Z,7.75
2023-03-17T08:20:09.616Z,8.40
2023-03-17T08:22:37.301Z,6.53
2023-03-17T08:25:04.957Z,8.27
2023-03-17T08:27:33.898Z,6.25
2023-03-17T08:30:03.030Z,8.05
2023-03-17T08:32:30.741Z,7.50
2023-03-17T08:34:58.306Z,7.18
2023-03-17T08:37:26.024Z,6.00
2023-03-17T08:39:53.578Z,5.95
2023-03-17T08:42:21.494Z,10.02
2023-03-17T08:44:49.025Z,14.10
2023-03-17T08:47:17.437Z,8.10
2023-03-17T08:49:45.108Z,8.18
2023-03-17T08:52:13.038Z,12.98
2023-03-17T08:54:41.033Z,9.30
2023-03-17T08:57:08.688Z,8.93
2023-03-17T08:59:36.501Z,8.70
2023-03-17T09:02:05.413Z,5.03
2023-03-17T09:04:33.829Z,7.00
2023-03-17T09:07:04.223Z,9.90
2023-03-17T09:09:33.455Z,13.73
2023-03-17T09:12:02.254Z,7.95
2023-03-17T09:14:35.280Z,7.00
2023-03-17T09:17:08.449Z,9.60
2023-03-17T09:19:36.029Z,5.32
2023-03-17T09:22:03.780Z,9.05
2023-03-17T09:24:31.379Z,5.10
2023-03-17T09:27:01.207Z,5.90
2023-03-17T09:29:29.120Z,4.07
2023-03-17T09:31:56.955Z,11.85
2023-03-17T09:34:25.560Z,7.07
2023-03-17T09:36:56.020Z,8.48
2023-03-17T09:39:24.095Z,10.98
2023-03-17T09:41:56.979Z,7.38
2023-03-17T09:44:30.225Z,8.85
2023-03-17T09:47:25.261Z,4.35
2023-03-17T09:49:54.161Z,6.65
2023-03-17T09:52:27.821Z,4.43
2023-03-17T09:54:55.716Z,5.10
2023-03-17T09:57:32.154Z,4.60
2023-03-17T10:00:07.863Z,6.03
2023-03-17T10:02:37.613Z,8.40
2023-03-17T10:05:20.554Z,3.42
2023-03-17T10:08:19.053Z,3.80
2023-03-17T10:11:13.350Z,5.85
2023-03-17T10:13:50.054Z,6.28
2023-03-17T10:16:21.892Z,5.63
2023-03-17T10:21:19.405Z,6.85
2023-03-17T10:23:47.038Z,5.03
2023-03-17T10:26:27.373Z,5.85
2023-03-17T10:28:55.758Z,4.45
2023-03-17T10:31:33.170Z,8.93
2023-03-17T10:34:12.159Z,10.45
2023-03-17T10:36:42.356Z,5.85
2023-03-17T10:39:12.597Z,3.22
2023-03-17T10:41:48.538Z,6.68
2023-03-17T10:44:22.649Z,4.05
2023-03-17T10:46:57.126Z,3.95
2023-03-17T10:49:26.547Z,3.25
2023-03-17T10:51:55.175Z,5.70
2023-03-17T10:54:25.191Z,5.60
2023-03-17T10:57:01.396Z,5.90
2023-03-17T10:59:37.692Z,9.57
2023-03-17T11:02:18.964Z,7.03
2023-03-17T11:04:46.930Z,3.93
2023-03-17T11:07:21.957Z,3.72
2023-03-17T11:09:53.431Z,3.60
2023-03-17T11:12:28.522Z,2.92
2023-03-17T11:14:59.574Z,4.63
2023-03-17T11:17:34.290Z,6.03
2023-03-17T11:20:11.406Z,5.22
2023-03-17T11:22:40.957Z,5.88
2023-03-17T11:25:13.975Z,4.68
2023-03-17T11:27:47.173Z,1.95
2023-03-17T11:30:15.060Z,4.45
2023-03-17T11:32:46.008Z,3.75
2023-03-17T11:35:32.902Z,4.40
2023-03-17T11:38:05.667Z,5.32
2023-03-17T11:40:37.380Z,6.13
2023-03-17T11:43:37.031Z,3.20
2023-03-17T11:46:04.858Z,2.97
2023-03-17T11:48:32.439Z,5.45
2023-03-17T11:51:03.038Z,4.68
2023-03-17T11:53:46.246Z,5.03
2023-03-17T11:56:19.742Z,3.15
2023-03-17T11:58:50.351Z,6.15
2023-03-17T12:01:24.462Z,3.63
2023-03-17T12:04:03.127Z,4.43
2023-03-17T12:06:33.353Z,4.43
2023-03-17T12:09:07.840Z,5.03
2023-03-17T12:11:37.753Z,6.50
2023-03-17T12:14:07.224Z,3.85
2023-03-17T12:16:44.545Z,5.70
2023-03-17T12:19:30.511Z,3.90
2023-03-17T12:22:06.675Z,7.13
2023-03-17T12:24:39.831Z,6.25
2023-03-17T12:27:14.391Z,4.28
2023-03-17T12:29:49.615Z,2.92
2023-03-17T12:32:17.253Z,4.30
2023-03-17T12:34:52.059Z,5.13
2023-03-17T12:37:20.194Z,2.35
2023-03-17T12:39:58.700Z,5.68
2023-03-17T12:42:47.818Z,12.82
2023-03-17T12:45:31.031Z,4.75
2023-03-17T12:47:58.659Z,2.53
2023-03-17T12:50:34.727Z,7.20
2023-03-17T12:53:21.805Z,2.33
2023-03-17T12:55:53.950Z,3.75
2023-03-17T12:58:25.928Z,5.78
2023-03-17T13:01:04.908Z,3.38
2023-03-17T13:03:33.790Z,3.88
2023-03-17T13:06:03.600Z,2.97
2023-03-17T13:08:36.007Z,3.28
2023-03-17T13:11:19.018Z,3.63
2023-03-17T13:14:08.544Z,4.30
2023-03-17T13:16:41.141Z,3.20
2023-03-17T13:19:15.045Z,5.65
2023-03-17T13:21:50.507Z,5.95
2023-03-17T13:24:18.553Z,3.33
2023-03-17T13:26:56.946Z,4.88
2023-03-17T13:29:38.975Z,3.60
2023-03-17T13:32:21.829Z,3.85
2023-03-17T13:34:53.883Z,5.15
2023-03-17T13:37:28.608Z,6.63
2023-03-17T13:40:16.740Z,4.03
2023-03-17T13:42:50.551Z,4.75
2023-03-17T13:45:37.279Z,7.13
2023-03-17T13:48:21.166Z,7.07
2023-03-17T13:50:48.793Z,4.63
2023-03-17T13:53:16.669Z,4.18
2023-03-17T13:56:04.484Z,6.95
2023-03-17T13:58:34.165Z,4.68
2023-03-17T14:01:07.332Z,6.28
2023-03-17T14:03:38.768Z,6.85
2023-03-17T14:06:08.000Z,4.22
2023-03-17T14:08:36.682Z,4.00
2023-03-17T14:11:07.027Z,4.40
2023-03-17T14:14:01.238Z,5.32
2023-03-17T14:16:31.188Z,5.82
2023-03-17T14:19:00.991Z,6.53
2023-03-17T14:21:32.356Z,6.30
2023-03-17T14:24:01.694Z,4.43
2023-03-17T14:26:32.948Z,6.63
2023-03-17T14:29:01.462Z,4.60
2023-03-17T14:31:29.865Z,8.05
2023-03-17T14:34:01.431Z,4.97
2023-03-17T14:36:33.036Z,5.25
2023-03-17T14:39:00.654Z,8.65
2023-03-17T14:41:28.978Z,6.45
2023-03-17T14:44:00.307Z,6.00
2023-03-17T14:46:31.174Z,6.95
2023-03-17T14:49:01.025Z,6.87
2023-03-17T14:51:33.910Z,5.97
2023-03-17T14:54:03.531Z,6.78
2023-03-17T14:56:36.601Z,10.68
2023-03-17T14:59:27.313Z,6.78
2023-03-17T15:01:58.313Z,11.55
2023-03-17T15:04:27.242Z,14.00
2023-03-17T15:07:01.594Z,19.58
2023-03-17T15:09:31.864Z,10.20
2023-03-17T15:12:07.130Z,11.80
2023-03-17T15:14:36.398Z,8.77
2023-03-17T15:17:05.052Z,4.18
2023-03-17T15:19:43.439Z,6.65
2023-03-17T15:22:43.361Z,8.75
2023-03-17T15:25:29.157Z,11.75
2023-03-17T15:27:56.835Z,20.48
2023-03-17T15:30:24.825Z,7.15
2023-03-17T15:32:58.787Z,15.65
2023-03-17T15:35:27.256Z,17.08
2023-03-17T15:37:55.463Z,19.70
2023-03-17T15:40:23.117Z,9.38
2023-03-17T15:42:50.664Z,5.65
2023-03-17T15:45:18.887Z,12.68
2023-03-17T15:47:47.393Z,7.55
2023-03-17T15:50:17.363Z,7.07
2023-03-17T15:52:45.724Z,10.82
2023-03-17T15:55:17.359Z,13.57
2023-03-17T15:57:53.834Z,6.72
2023-03-17T16:00:23.635Z,8.40
2023-03-17T16:02:54.708Z,11.63
2023-03-17T16:05:23.969Z,4.68
2023-03-17T16:07:52.562Z,4.82
2023-03-17T16:10:20.440Z,12.02
2023-03-17T16:12:48.547Z,8.88
2023-03-17T16:15:23.298Z,7.18
2023-03-17T16:17:54.493Z,7.65
2023-03-17T16:20:23.897Z,26.52
2023-03-17T16:22:53.028Z,12.18
2023-03-17T16:25:22.737Z,11.75
2023-03-17T16:27:50.488Z,10.65
2023-03-17T16:30:19.167Z,6.45
2023-03-17T16:32:46.826Z,6.50
2023-03-17T16:35:32.750Z,11.48
2023-03-17T16:38:00.686Z,10.35
2023-03-17T16:40:29.360Z,5.53
2023-03-17T16:42:57.047Z,7.07
2023-03-17T16:45:34.895Z,10.88
2023-03-17T16:48:03.707Z,6.07
2023-03-17T16:50:33.212Z,7.28
2023-03-17T16:53:01.111Z,5.13
2023-03-17T16:55:29.590Z,7.50
2023-03-17T16:57:59.138Z,5.85
2023-03-17T17:00:28.839Z,10.52
2023-03-17T17:02:56.753Z,8.50
2023-03-17T17:05:31.170Z,5.93
2023-03-17T17:07:59.230Z,13.52
2023-03-17T17:10:27.985Z,6.30
2023-03-17T17:12:55.796Z,9.02
2023-03-17T17:15:23.605Z,7.82
2023-03-17T17:17:52.607Z,10.13
2023-03-17T17:20:23.627Z,8.70
2023-03-17T17:22:51.333Z,4.90
2023-03-17T17:25:19.104Z,6.88
2023-03-17T17:27:47.343Z,13.40
2023-03-17T17:30:17.014Z,10.48
2023-03-17T17:32:45.161Z,10.05
2023-03-17T17:35:13.190Z,4.93
2023-03-17T17:37:40.884Z,7.18
2023-03-17T17:40:09.789Z,9.10
2023-03-17T17:42:37.391Z,10.68
2023-03-17T17:45:05.119Z,7.70
2023-03-17T17:47:32.831Z,14.07
2023-03-17T17:50:01.444Z,11.82
2023-03-17T17:52:28.986Z,8.60
2023-03-17T17:54:57.082Z,10.13
2023-03-17T17:57:25.079Z,8.98
2023-03-17T17:59:52.631Z,10.18
2023-03-17T18:02:20.382Z,12.15
2023-03-17T18:04:47.972Z,12.07
2023-03-17T18:07:15.617Z,12.57
2023-03-17T18:09:43.194Z,9.82
2023-03-17T18:12:10.923Z,8.38
2023-03-17T18:14:38.541Z,8.80
2023-03-17T18:17:07.246Z,8.52
2023-03-17T18:19:35.101Z,5.45
2023-03-17T18:22:03.636Z,9.32
2023-03-17T18:24:31.258Z,9.45
2023-03-17T18:26:59.020Z,7.47
2023-03-17T18:29:26.567Z,8.93
2023-03-17T18:31:55.220Z,11.90
2023-03-17T18:34:24.098Z,5.82
2023-03-17T18:36:52.506Z,9.00
2023-03-17T18:39:20.081Z,7.63
2023-03-17T18:41:48.581Z,6.30
2023-03-17T18:44:16.628Z,12.23
2023-03-17T18:46:44.632Z,16.77
2023-03-17T18:49:12.193Z,15.23
2023-03-17T18:51:40.090Z,13.13
2023-03-17T18:54:08.469Z,12.85
2023-03-17T18:56:36.095Z,10.55
2023-03-17T18:59:03.714Z,7.57
2023-03-17T19:01:31.790Z,7.10
2023-03-17T19:03:59.450Z,7.70
2023-03-17T19:06:27.069Z,5.90
2023-03-17T19:08:54.593Z,9.70
2023-03-17T19:11:22.204Z,14.38
2023-03-17T19:13:49.752Z,11.13
2023-03-17T19:16:18.658Z,11.07
2023-03-17T19:18:46.844Z,12.93
2023-03-17T19:21:14.503Z,13.18
2023-03-17T19:23:42.033Z,10.20
2023-03-17T19:26:10.231Z,8.85
2023-03-17T19:28:37.906Z,12.63
2023-03-17T19:31:06.118Z,7.38
2023-03-17T19:33:33.773Z,8.38
2023-03-17T19:36:02.699Z,8.70
2023-03-17T19:38:30.841Z,12.32
2023-03-17T19:40:58.422Z,10.07
2023-03-17T19:43:39.890Z,10.65
2023-03-17T19:46:08.800Z,6.75
2023-03-17T19:48:37.297Z,11.50
2023-03-17T19:51:05.384Z,10.82
2023-03-17T19:53:32.963Z,16.02
2023-03-17T19:56:00.638Z,13.20
2023-03-17T19:58:28.267Z,13.60
2023-03-17T20:00:56.209Z,10.98
2023-03-17T20:03:26.048Z,20.05
2023-03-17T20:05:53.947Z,12.70
2023-03-17T20:08:22.348Z,9.75
2023-03-17T20:10:52.079Z,11.77
2023-03-17T20:13:19.628Z,13.05
2023-03-17T20:15:47.341Z,13.20
2023-03-17T20:18:15.072Z,9.15
2023-03-17T20:20:49.218Z,9.18
2023-03-17T20:23:17.409Z,9.77
2023-03-17T20:25:44.953Z,10.82
2023-03-17T20:28:12.920Z,10.50
2023-03-17T20:30:40.730Z,12.45
2023-03-17T20:33:09.639Z,16.13
2023-03-17T20:35:39.079Z,10.32
2023-03-17T20:38:08.143Z,14.93
2023-03-17T20:40:35.918Z,12.60
2023-03-17T20:43:03.770Z,10.65
2023-03-17T20:45:31.586Z,12.30
2023-03-17T20:47:59.135Z,11.63
2023-03-17T20:50:26.813Z,13.52
2023-03-17T20:52:54.325Z,12.90
2023-03-17T20:55:21.867Z,20.95
2023-03-17T20:57:50.868Z,13.25
2023-03-17T21:00:20.030Z,14.65
2023-03-17T21:02:49.999Z,13.23
2023-03-17T21:05:19.757Z,11.93
2023-03-17T21:07:47.844Z,15.13
2023-03-17T21:10:15.709Z,16.60
2023-03-17T21:12:43.424Z,17.52
2023-03-17T21:15:12.764Z,20.15
2023-03-17T21:17:41.887Z,27.95
2023-03-17T21:20:13.916Z,29.15
2023-03-17T21:22:41.870Z,36.42
2023-03-17T21:25:10.598Z,31.17
2023-03-17T21:27:38.753Z,23.13
2023-03-17T21:30:08.750Z,22.10
2023-03-17T21:32:36.741Z,15.57
2023-03-17T21:35:04.865Z,20.05
2023-03-17T21:37:32.390Z,17.02
2023-03-17T21:40:00.156Z,15.32
2023-03-17T21:42:28.236Z,16.67
2023-03-17T21:44:55.807Z,15.00
2023-03-17T21:47:23.373Z,18.27
2023-03-17T21:49:50.913Z,14.77
2023-03-17T21:52:20.701Z,20.00
2023-03-17T21:54:48.738Z,18.20
2023-03-17T21:57:17.818Z,18.50
2023-03-17T21:59:45.485Z,16.63
2023-03-17T22:02:13.076Z,15.15
2023-03-17T22:04:41.596Z,13.27
2023-03-17T22:07:09.255Z,14.90
2023-03-17T22:09:37.506Z,15.30
2023-03-17T22:12:05.279Z,15.38
2023-03-17T22:14:34.277Z,18.65
2023-03-17T22:17:02.627Z,15.15
2023-03-17T22:19:30.258Z,16.10
2023-03-17T22:21:57.834Z,14.85
2023-03-17T22:24:25.498Z,14.68
2023-03-17T22:26:53.085Z,14.57
2023-03-17T22:29:20.794Z,14.93
2023-03-17T22:31:48.475Z,12.10
2023-03-17T22:34:16.142Z,13.68
2023-03-17T22:36:43.682Z,11.80
2023-03-17T22:39:11.691Z,14.48
2023-03-17T22:41:40.601Z,13.25
2023-03-17T22:44:09.169Z,15.35
2023-03-17T22:46:37.720Z,19.08
2023-03-17T22:49:05.885Z,10.32
2023-03-17T22:51:33.453Z,12.43
2023-03-17T22:54:01.150Z,12.32
2023-03-17T22:56:28.757Z,11.63
2023-03-17T22:58:56.356Z,12.23
2023-03-17T23:01:25.671Z,11.02
2023-03-17T23:03:54.111Z,11.10
2023-03-17T23:06:22.035Z,12.90
2023-03-17T23:08:49.728Z,11.98
2023-03-17T23:11:18.957Z,14.27
2023-03-17T23:13:47.326Z,9.18
2023-03-17T23:16:15.199Z,10.23
2023-03-17T23:18:46.101Z,13.05
2023-03-17T23:21:33.430Z,9.02
2023-03-17T23:24:01.499Z,11.52
2023-03-17T23:26:29.929Z,12.68
2023-03-17T23:28:57.604Z,12.70
2023-03-17T23:31:25.474Z,15.23
2023-03-17T23:33:53.143Z,8.82
2023-03-17T23:36:21.253Z,12.48
2023-03-17T23:38:49.833Z,12.30
2023-03-17T23:41:18.357Z,10.20
2023-03-17T23:43:46.627Z,12.63
2023-03-17T23:46:14.581Z,8.50
2023-03-17T23:48:42.876Z,15.18
2023-03-17T23:51:12.327Z,9.85
2023-03-17T23:53:40.157Z,8.98
2023-03-17T23:56:08.493Z,8.88
2023-03-17T23:58:36.289Z,9.10
